Time;durP1;ratioP1;P1;durP2;ratioP2;P2;SDS_P1;SDS_P2;PMS_P1;PMS_P2;Temp;Humidity;BMP_temperature;BMP_pressure;BME280_temperature;BME280_humidity;BME280_pressure;Samples;Min_cycle;Max_cycle;Signal;HPM_P1;HPM_P2
2021/05/19 00:01:20;;;;;;;2.05;1.42;;;;;;;16.75;70.28;98910.24;1831067;77;22186;-61
2021/05/19 00:03:54;;;;;;;3.12;2.00;;;;;;;16.74;70.45;98912.52;1831449;77;22135;-63
2021/05/19 00:06:40;;;;;;;1.85;1.32;;;;;;;16.71;70.47;98916.69;1767487;80;21150;-54
2021/05/19 00:09:15;;;;;;;1.80;1.35;;;;;;;16.81;70.39;98916.52;1853244;77;22567;-64
2021/05/19 00:11:48;;;;;;;3.33;1.27;;;;;;;16.83;70.36;98913.75;1806694;77;22194;-63
2021/05/19 00:14:22;;;;;;;2.12;1.42;;;;;;;16.84;70.44;98912.80;1833506;77;22124;-65
2021/05/19 00:16:55;;;;;;;5.28;1.65;;;;;;;16.78;70.73;98913.55;1798569;77;22182;-64
2021/05/19 00:19:28;;;;;;;3.77;1.42;;;;;;;16.77;70.79;98925.16;1834799;77;22176;-65
2021/05/19 00:22:01;;;;;;;2.37;1.20;;;;;;;16.74;70.80;98916.50;1820514;77;22181;-53
2021/05/19 00:24:47;;;;;;;2.33;1.20;;;;;;;16.68;70.96;98919.07;1791039;80;21150;-65
2021/05/19 00:27:20;;;;;;;2.12;1.20;;;;;;;16.72;70.86;98916.61;1852983;77;22174;-54
2021/05/19 00:29:53;;;;;;;1.98;1.12;;;;;;;16.72;70.90;98919.72;1832603;77;22152;-58
2021/05/19 00:32:26;;;;;;;1.98;1.50;;;;;;;16.75;70.80;98916.42;1833483;77;22187;-62
2021/05/19 00:34:59;;;;;;;2.47;1.85;;;;;;;16.70;70.95;98921.16;1811224;77;22150;-53
2021/05/19 00:37:47;;;;;;;4.00;2.05;;;;;;;16.61;71.14;98921.23;1731643;82;21135;-54
2021/05/19 00:40:20;;;;;;;3.37;2.30;;;;;;;16.65;71.19;98920.59;1826649;77;22182;-53
2021/05/19 00:42:53;;;;;;;3.27;2.62;;;;;;;16.61;71.33;98915.91;1830449;77;22173;-53
2021/05/19 00:45:39;;;;;;;4.87;2.95;;;;;;;16.58;71.44;98932.52;1813217;78;21126;-64
2021/05/19 00:48:13;;;;;;;4.87;3.80;;;;;;;16.64;71.34;98910.91;1853116;77;22167;-63
2021/05/19 00:50:46;;;;;;;4.30;3.90;;;;;;;16.60;71.46;98927.48;1820787;77;22195;-63
2021/05/19 00:53:19;;;;;;;5.20;4.22;;;;;;;16.54;71.66;98923.91;1813966;77;22158;-63
2021/05/19 00:55:52;;;;;;;4.85;4.03;;;;;;;16.60;71.48;98927.48;1837333;77;22169;-63
2021/05/19 00:58:26;;;;;;;5.33;4.65;;;;;;;16.68;71.17;98919.53;1834779;77;22176;-63
2021/05/19 01:00:59;;;;;;;5.08;4.47;;;;;;;16.71;71.06;98920.22;1828042;77;22183;-64
2021/05/19 01:03:47;;;;;;;4.62;3.77;;;;;;;16.53;71.35;98923.52;1765204;80;21574;-64
2021/05/19 01:11:46;;;;;;;3.98;3.50;;;;;;;16.53;71.30;98922.19;1809764;77;22632;-62
2021/05/19 01:14:20;;;;;;;4.10;3.20;;;;;;;16.54;71.24;98927.88;1834767;77;22595;-61
2021/05/19 01:16:53;;;;;;;4.42;3.62;;;;;;;16.51;71.20;98936.03;1805599;77;22614;-53
2021/05/19 01:19:42;;;;;;;4.40;3.70;;;;;;;16.49;71.14;98932.13;1760077;81;21099;-62
2021/05/19 01:22:27;;;;;;;3.98;3.30;;;;;;;16.48;71.16;98946.34;1831430;77;22154;-53
2021/05/19 01:25:07;;;;;;;3.45;2.85;;;;;;;16.46;71.20;98936.78;1847921;77;22523;-61
2021/05/19 01:27:40;;;;;;;6.25;3.60;;;;;;;16.44;71.17;98937.34;1853140;77;22175;-61
2021/05/19 01:30:27;;;;;;;3.87;3.47;;;;;;;16.42;71.17;98937.91;1786548;78;21591;-53
2021/05/19 01:33:00;;;;;;;3.90;2.98;;;;;;;16.40;71.26;98937.98;1834787;77;22614;-53
2021/05/19 01:35:33;;;;;;;4.00;3.47;;;;;;;16.42;71.23;98933.43;1823506;77;22609;-52
2021/05/19 01:38:20;;;;;;;4.47;3.47;;;;;;;16.39;71.07;98934.10;1755494;81;21130;-53
2021/05/19 01:40:53;;;;;;;4.15;3.37;;;;;;;16.45;71.02;98943.88;1819067;77;22190;-61
2021/05/19 01:43:32;;;;;;;4.92;3.83;;;;;;;16.40;71.19;98934.00;1834771;77;22147;-62
2021/05/19 01:46:19;;;;;;;3.90;3.45;;;;;;;16.40;71.04;98937.98;1767695;80;21175;-61
2021/05/19 01:48:58;;;;;;;4.97;4.20;;;;;;;16.38;71.19;98933.23;1827395;77;22585;-61
2021/05/19 01:51:31;;;;;;;5.62;3.90;;;;;;;16.34;71.36;98935.23;1827501;77;22189;-52
2021/05/19 01:54:24;;;;;;;4.47;3.90;;;;;;;16.34;71.25;98941.86;1834506;77;22204;-54
2021/05/19 01:57:10;;;;;;;4.37;3.98;;;;;;;16.33;71.19;98943.30;1761201;80;21157;-53
2021/05/19 01:59:43;;;;;;;5.50;5.00;;;;;;;16.38;71.18;98935.05;1834747;77;22175;-61
2021/05/19 02:02:18;;;;;;;4.37;3.98;;;;;;;16.33;71.30;98935.34;1820479;77;22148;-52
2021/05/19 02:05:06;;;;;;;5.12;4.40;;;;;;;16.32;71.21;98941.09;1759374;80;21373;-62
2021/05/19 02:07:39;;;;;;;5.40;4.80;;;;;;;16.20;71.59;98941.36;1819872;77;22175;-52
2021/05/19 02:10:13;;;;;;;5.15;4.65;;;;;;;16.27;71.37;98936.53;1845538;77;22181;-52
2021/05/19 02:12:46;;;;;;;6.87;4.72;;;;;;;16.27;71.44;98948.97;1853128;77;22199;-61
2021/05/19 02:15:35;;;;;;;6.28;5.08;;;;;;;16.25;71.35;98946.38;1751611;81;21126;-62
2021/05/19 02:18:08;;;;;;;6.35;5.75;;;;;;;16.28;71.36;98938.24;1853156;77;22626;-52
2021/05/19 02:20:41;;;;;;;5.05;4.55;;;;;;;16.31;71.35;98945.19;1825154;77;22665;-52
2021/05/19 02:23:14;;;;;;;5.60;4.45;;;;;;;16.18;71.70;98946.36;1830687;77;22621;-53
2021/05/19 02:25:47;;;;;;;6.17;5.03;;;;;;;16.24;71.43;98942.51;1807204;77;22594;-61
2021/05/19 02:28:20;;;;;;;5.37;4.87;;;;;;;16.28;71.33;98946.70;1830177;77;22155;-61
2021/05/19 02:30:53;;;;;;;5.33;4.83;;;;;;;16.32;71.22;98949.55;1819068;77;22175;-61
2021/05/19 02:33:27;;;;;;;5.47;4.97;;;;;;;16.31;71.19;98947.35;1819533;77;22158;-52
2021/05/19 02:36:00;;;;;;;5.50;5.00;;;;;;;16.33;71.15;98949.45;1817638;77;22166;-61
2021/05/19 02:38:47;;;;;;;5.95;5.03;;;;;;;16.30;71.15;98954.94;1761990;81;21285;-54
2021/05/19 02:41:21;;;;;;;4.90;4.37;;;;;;;16.33;71.19;98955.25;1811462;77;22170;-52
2021/05/19 02:43:54;;;;;;;4.90;4.25;;;;;;;16.19;71.54;98963.53;1827449;77;22159;-61
2021/05/19 02:46:27;;;;;;;5.17;4.50;;;;;;;16.29;71.32;98953.72;1829176;77;22579;-52
2021/05/19 02:49:03;;;;;;;5.22;4.10;;;;;;;16.16;71.63;98959.73;1834770;77;22183;-60
2021/05/19 02:51:37;;;;;;;4.47;4.08;;;;;;;16.23;71.49;98968.18;1797165;77;20239;-61
2021/05/19 02:54:23;;;;;;;4.80;4.28;;;;;;;16.26;71.30;98961.37;1731837;83;21134;-63
2021/05/19 02:56:56;;;;;;;4.10;3.37;;;;;;;16.28;71.45;98966.60;1804688;77;22635;-62
2021/05/19 02:59:29;;;;;;;4.40;3.98;;;;;;;16.28;71.43;98977.22;1850128;77;22555;-62
2021/05/19 03:02:03;;;;;;;5.97;3.98;;;;;;;16.27;71.45;98975.02;1821241;77;22181;-53
2021/05/19 03:04:36;;;;;;;4.25;3.80;;;;;;;16.24;71.53;98976.53;1853138;77;22151;-53
2021/05/19 03:07:22;;;;;;;4.50;3.25;;;;;;;16.22;71.53;98980.23;1763916;80;21273;-64
2021/05/19 03:09:55;;;;;;;3.77;3.17;;;;;;;16.19;71.70;98974.16;1822423;77;22590;-53
2021/05/19 03:12:28;;;;;;;4.33;3.77;;;;;;;16.23;71.66;98981.45;1834784;77;22180;-53
2021/05/19 03:15:01;;;;;;;5.08;3.98;;;;;;;16.20;71.73;98982.50;1849043;77;22171;-53
2021/05/19 03:17:34;;;;;;;4.58;3.67;;;;;;;16.22;71.72;98978.41;1826392;77;22119;-63
2021/05/19 03:20:09;;;;;;;4.28;3.87;;;;;;;16.19;71.83;98990.08;1819967;77;22193;-62
2021/05/19 03:22:42;;;;;;;4.40;3.80;;;;;;;16.16;71.96;98992.91;1834761;77;22587;-52
2021/05/19 03:25:15;;;;;;;5.03;4.05;;;;;;;16.17;71.88;99003.04;1822748;77;22477;-62
2021/05/19 03:27:48;;;;;;;4.62;3.77;;;;;;;16.20;71.75;98998.43;1825425;77;22636;-52
2021/05/19 03:30:23;;;;;;;4.22;3.80;;;;;;;16.21;71.79;99001.92;1826354;77;22617;-53
2021/05/19 03:32:56;;;;;;;3.42;3.00;;;;;;;16.20;71.83;98999.75;1853136;77;22175;-52
2021/05/19 03:35:42;;;;;;;3.92;3.42;;;;;;;16.17;71.83;99014.53;1796290;78;21111;-53
2021/05/19 03:38:21;;;;;;;5.25;3.60;;;;;;;16.25;71.69;99009.26;1820031;77;22138;-52
2021/05/19 03:40:55;;;;;;;4.30;3.20;;;;;;;16.28;71.58;99015.23;1819016;77;22159;-52
2021/05/19 03:43:41;;;;;;;4.08;3.52;;;;;;;16.17;71.73;99022.95;1761963;80;21799;-61
2021/05/19 03:46:15;;;;;;;4.28;3.25;;;;;;;16.22;71.63;99016.91;1802999;77;22181;-52
2021/05/19 03:48:53;;;;;;;3.77;3.27;;;;;;;16.23;71.69;99013.80;1834809;77;22595;-53
2021/05/19 03:51:37;;;;;;;3.72;3.22;;;;;;;16.20;71.63;99024.10;1728645;82;21114;-53
2021/05/19 03:54:10;;;;;;;2.90;2.60;;;;;;;16.17;71.77;99022.95;1829387;77;22583;-53
2021/05/19 03:56:43;;;;;;;5.12;3.33;;;;;;;16.22;71.63;99026.20;1801191;77;22606;-52
2021/05/19 03:59:29;;;;;;;10.00;4.62;;;;;;;16.17;71.59;99027.80;1765046;81;21577;-54
2021/05/19 04:02:02;;;;;;;4.90;3.33;;;;;;;16.33;71.28;99034.41;1821109;77;22189;-53
2021/05/19 04:04:35;;;;;;;3.98;3.58;;;;;;;16.35;71.26;99032.52;1813565;77;22120;-53
2021/05/19 04:07:10;;;;;;;4.37;3.98;;;;;;;16.34;71.20;99034.80;1809196;77;22201;-53
2021/05/19 04:09:56;;;;;;;5.53;3.62;;;;;;;16.35;71.09;99044.92;1782269;80;21543;-53
2021/05/19 04:12:29;;;;;;;3.85;3.45;;;;;;;16.42;70.99;99034.34;1817580;77;22162;-61
2021/05/19 04:15:03;;;;;;;6.35;3.85;;;;;;;16.42;70.96;99046.77;1817871;77;22197;-60
2021/05/19 04:17:36;;;;;;;4.25;3.40;;;;;;;16.43;70.91;99044.50;1816772;77;22579;-60
2021/05/19 04:20:23;;;;;;;5.15;3.87;;;;;;;16.45;70.71;99045.27;1771042;80;21158;-60
2021/05/19 04:22:56;;;;;;;4.50;3.75;;;;;;;16.51;70.63;99062.19;1818726;77;22586;-61
2021/05/19 04:25:29;;;;;;;4.22;3.72;;;;;;;16.55;70.45;99055.75;1808469;77;22481;-52
2021/05/19 04:28:04;;;;;;;4.12;3.72;;;;;;;16.52;70.36;99059.91;1831354;77;22593;-61
2021/05/19 04:30:50;;;;;;;4.83;3.98;;;;;;;16.48;70.40;99059.70;1776802;80;21647;-61
2021/05/19 04:33:23;;;;;;;5.20;3.80;;;;;;;16.50;70.29;99056.00;1821192;77;22566;-52
2021/05/19 04:35:56;;;;;;;4.30;3.87;;;;;;;16.57;70.24;99067.59;1804146;77;22602;-61
2021/05/19 04:38:42;;;;;;;5.03;3.40;;;;;;;16.55;70.16;99074.34;1748306;81;21292;-60
2021/05/19 04:41:15;;;;;;;3.50;3.10;;;;;;;16.62;70.16;99064.20;1801667;77;22162;-62
2021/05/19 04:43:48;;;;;;;3.67;3.02;;;;;;;16.55;70.09;99075.67;1807266;77;22182;-53
2021/05/19 04:46:35;;;;;;;3.30;3.00;;;;;;;16.59;69.88;99073.19;1766501;80;21150;-54
2021/05/19 04:49:08;;;;;;;3.83;3.37;;;;;;;16.66;69.75;99076.36;1845158;77;22139;-52
2021/05/19 04:51:42;;;;;;;3.72;2.87;;;;;;;16.67;69.91;99078.53;1807463;77;22602;-61
2021/05/19 04:54:15;;;;;;;3.02;2.60;;;;;;;16.60;69.97;99089.52;1853183;77;22151;-52
2021/05/19 04:56:48;;;;;;;3.42;2.80;;;;;;;16.61;69.97;99087.23;1806880;77;22187;-52
2021/05/19 04:59:21;;;;;;;4.60;2.77;;;;;;;16.70;69.94;99092.97;1830150;77;22171;-53
2021/05/19 05:01:54;;;;;;;3.65;3.10;;;;;;;16.73;69.82;99092.33;1822989;77;22631;-61
2021/05/19 05:04:27;;;;;;;4.33;2.65;;;;;;;16.75;69.61;99109.50;1834837;77;22603;-61
2021/05/19 05:07:12;;;;;;;3.00;2.58;;;;;;;16.72;69.66;99109.67;1762142;81;21155;-53
2021/05/19 05:09:47;;;;;;;3.67;2.95;;;;;;;16.71;69.75;99117.26;1835511;77;22563;-60
2021/05/19 05:12:40;;;;;;;3.60;2.80;;;;;;;16.71;69.69;99113.28;1834565;77;22620;-54
2021/05/19 05:15:21;;;;;;;2.80;2.50;;;;;;;16.67;69.64;99119.70;1822180;77;22657;-60
2021/05/19 05:18:09;;;;;;;3.12;2.37;;;;;;;16.60;69.65;99122.72;1743734;81;21309;-53
2021/05/19 05:20:42;;;;;;;2.62;1.90;;;;;;;16.54;69.83;99114.25;1821667;77;22166;-61
2021/05/19 05:23:16;;;;;;;4.45;2.80;;;;;;;16.58;69.81;99123.27;1834795;77;22156;-60
2021/05/19 05:26:02;;;;;;;2.45;2.15;;;;;;;16.61;69.68;99128.90;1728158;82;21224;-62
2021/05/19 05:28:41;;;;;;;2.62;2.10;;;;;;;16.53;70.02;99133.33;1816013;77;22155;-53
2021/05/19 05:31:15;;;;;;;2.75;1.95;;;;;;;16.51;70.23;99129.91;1814274;77;22174;-53
2021/05/19 05:33:54;;;;;;;3.08;2.40;;;;;;;16.55;69.98;99131.91;1833119;77;22182;-62
2021/05/19 05:36:40;;;;;;;2.30;1.90;;;;;;;16.63;69.60;99137.64;1741344;81;21264;-54
2021/05/19 05:39:14;;;;;;;2.37;1.80;;;;;;;16.66;69.32;99140.12;1821433;77;22232;-61
2021/05/19 05:41:47;;;;;;;3.30;1.95;;;;;;;16.59;69.55;99144.91;1787607;77;22205;-62
2021/05/19 05:44:21;;;;;;;3.00;2.22;;;;;;;16.61;69.71;99140.85;1792829;77;22200;-53
2021/05/19 05:46:55;;;;;;;2.20;1.72;;;;;;;16.59;69.93;99138.75;1805282;77;22186;-60
2021/05/19 05:49:28;;;;;;;3.85;1.87;;;;;;;16.60;69.73;99141.80;1833417;77;22120;-53
2021/05/19 05:52:02;;;;;;;2.27;1.60;;;;;;;16.58;69.78;99146.34;1818967;77;22204;-52
2021/05/19 05:54:49;;;;;;;2.30;1.70;;;;;;;16.53;69.74;99159.89;1745703;81;21131;-55
2021/05/19 05:57:23;;;;;;;4.87;2.02;;;;;;;16.56;69.83;99152.20;1852289;77;22179;-61
2021/05/19 05:59:58;;;;;;;2.05;1.82;;;;;;;16.59;69.85;99151.55;1823075;77;22138;-61
2021/05/19 06:02:51;;;;;;;2.52;1.80;;;;;;;16.61;69.80;99166.93;1832881;77;22234;-63
2021/05/19 06:05:25;;;;;;;3.35;2.08;;;;;;;16.59;69.83;99160.84;1825513;77;22175;-60
2021/05/19 06:08:18;;;;;;;2.83;1.85;;;;;;;16.57;69.73;99173.36;1830533;77;22212;-63
2021/05/19 06:10:52;;;;;;;2.58;2.00;;;;;;;16.45;70.02;99166.10;1813472;77;22183;-60
2021/05/19 06:13:25;;;;;;;2.75;2.00;;;;;;;16.41;70.11;99163.23;1853127;77;22179;-53
2021/05/19 06:15:58;;;;;;;2.85;1.90;;;;;;;16.42;70.19;99169.77;1817991;77;22610;-60
2021/05/19 06:18:32;;;;;;;2.55;2.10;;;;;;;16.48;70.26;99169.43;1821063;77;22154;-53
2021/05/19 06:21:05;;;;;;;3.83;2.33;;;;;;;16.50;70.35;99166.70;1834427;77;22189;-53
2021/05/19 06:23:38;;;;;;;3.42;2.15;;;;;;;16.56;70.38;99169.47;1853127;77;22178;-59
2021/05/19 06:26:12;;;;;;;2.90;2.10;;;;;;;16.63;70.34;99171.68;1813734;77;22641;-52
2021/05/19 06:29:00;;;;;;;2.75;2.25;;;;;;;16.63;70.36;99180.98;1760289;81;21253;-61
2021/05/19 06:31:34;;;;;;;3.85;3.20;;;;;;;16.72;70.23;99176.09;1794621;77;28080;-53
2021/05/19 06:34:07;;;;;;;3.12;2.60;;;;;;;16.86;70.16;99183.27;1834766;77;22180;-60
2021/05/19 06:36:54;;;;;;;3.25;2.45;;;;;;;16.90;69.96;99183.48;1762492;80;21150;-61
2021/05/19 06:39:30;;;;;;;2.50;2.30;;;;;;;16.97;69.88;99180.89;1832580;77;22136;-53
2021/05/19 06:42:04;;;;;;;3.72;2.12;;;;;;;16.93;69.52;99182.84;1820908;77;22633;-60
2021/05/19 06:44:50;;;;;;;3.00;2.20;;;;;;;17.00;69.65;99197.98;1793274;80;21177;-53
2021/05/19 06:47:24;;;;;;;2.50;1.95;;;;;;;17.02;69.59;99193.44;1793369;77;22604;-53
2021/05/19 06:49:57;;;;;;;2.62;2.20;;;;;;;17.05;69.75;99195.05;1834743;77;22155;-55
2021/05/19 06:52:30;;;;;;;3.02;2.35;;;;;;;17.13;69.65;99202.60;1816514;77;22138;-60
2021/05/19 06:55:07;;;;;;;2.77;2.27;;;;;;;17.12;69.50;99199.06;1826604;77;22151;-59
2021/05/19 06:57:46;;;;;;;2.42;1.80;;;;;;;17.10;69.50;99212.92;1834048;77;22548;-53
2021/05/19 07:00:33;;;;;;;3.95;2.40;;;;;;;17.02;69.68;99201.41;1782766;80;21360;-59
2021/05/19 07:03:08;;;;;;;2.90;2.40;;;;;;;17.07;69.49;99214.42;1834919;77;20147;-53
2021/05/19 07:05:41;;;;;;;3.25;2.10;;;;;;;17.06;69.67;99216.70;1803702;77;22705;-53
2021/05/19 07:08:15;;;;;;;3.90;2.25;;;;;;;16.96;69.57;99213.72;1853130;77;22587;-59
2021/05/19 07:10:48;;;;;;;4.12;2.62;;;;;;;16.98;69.62;99222.47;1820301;77;22186;-53
2021/05/19 07:13:22;;;;;;;4.92;2.80;;;;;;;17.02;69.54;99231.11;1841384;77;22120;-53
2021/05/19 07:15:56;;;;;;;3.65;2.83;;;;;;;17.01;69.57;99235.58;1813349;77;22198;-53
2021/05/19 07:18:29;;;;;;;6.70;2.80;;;;;;;17.00;69.49;99233.03;1824865;77;22186;-53
2021/05/19 07:21:16;;;;;;;2.90;2.30;;;;;;;16.94;69.56;99239.05;1759872;81;21122;-54
2021/05/19 07:23:49;;;;;;;3.98;2.30;;;;;;;16.93;69.47;99249.75;1820574;77;22151;-60
2021/05/19 07:26:24;;;;;;;5.35;2.50;;;;;;;16.89;69.28;99253.06;1812494;77;22174;-60
2021/05/19 07:28:57;;;;;;;3.12;2.45;;;;;;;16.93;69.47;99261.70;1821366;77;22178;-59
2021/05/19 07:31:31;;;;;;;4.83;3.17;;;;;;;16.96;69.52;99264.22;1825850;77;22163;-60
2021/05/19 07:34:18;;;;;;;3.40;2.98;;;;;;;16.99;69.49;99271.19;1721784;83;21155;-54
2021/05/19 07:36:51;;;;;;;3.17;2.70;;;;;;;17.08;69.37;99267.52;1798497;77;22158;-60
2021/05/19 07:39:25;;;;;;;3.10;2.58;;;;;;;17.07;69.46;99271.58;1827885;77;22155;-53
2021/05/19 07:41:58;;;;;;;2.83;2.40;;;;;;;17.00;69.66;99267.58;1804492;77;22170;-53
2021/05/19 07:44:32;;;;;;;3.35;2.80;;;;;;;17.02;69.77;99274.52;1834763;77;22172;-59
2021/05/19 07:46:59;;;;;;;4.20;2.65;;;;;;;17.04;69.67;99291.69;1763903;80;21273;-60
2021/05/19 07:49:27;;;;;;;3.42;2.62;;;;;;;17.03;69.70;99289.52;1761856;81;21130;-54
2021/05/19 07:51:55;;;;;;;7.05;2.90;;;;;;;17.07;69.37;99291.06;1762003;81;21316;-60
2021/05/19 07:54:26;;;;;;;4.87;2.77;;;;;;;17.11;69.42;99298.86;1753532;81;21602;-54
2021/05/19 07:59:33;;;;;;;5.22;2.83;;;;;;;17.20;69.45;99306.32;1817073;77;22155;-60
2021/05/19 08:02:04;;;;;;;3.50;2.60;;;;;;;17.21;69.35;99320.84;1787246;80;21572;-53
2021/05/19 08:04:36;;;;;;;4.35;2.50;;;;;;;17.20;69.37;99330.25;1793059;80;21155;-61
2021/05/19 08:07:04;;;;;;;3.12;2.75;;;;;;;17.25;69.20;99326.83;1758464;81;21617;-61
2021/05/19 08:09:31;;;;;;;3.42;3.00;;;;;;;17.27;69.04;99330.26;1744215;82;21143;-61
2021/05/19 08:11:58;;;;;;;3.80;2.90;;;;;;;17.29;68.88;99331.03;1727592;82;21660;-61
2021/05/19 08:14:27;;;;;;;3.15;2.42;;;;;;;17.35;68.93;99336.00;1744297;82;21646;-54
2021/05/19 08:16:55;;;;;;;3.85;2.98;;;;;;;17.38;68.82;99336.32;1728605;82;21581;-55
2021/05/19 08:19:22;;;;;;;3.08;2.62;;;;;;;17.44;68.89;99347.06;1744473;82;21551;-54
2021/05/19 08:21:55;;;;;;;3.30;2.58;;;;;;;17.44;68.64;99351.90;1804538;77;22655;-53
2021/05/19 08:24:28;;;;;;;2.95;2.60;;;;;;;17.48;68.55;99348.61;1853133;77;22562;-60
2021/05/19 08:27:02;;;;;;;3.50;2.83;;;;;;;17.44;68.38;99359.88;1821200;77;22170;-53
2021/05/19 08:29:36;;;;;;;2.75;2.30;;;;;;;17.41;68.51;99366.73;1834767;77;22179;-53
2021/05/19 08:32:12;;;;;;;3.50;3.02;;;;;;;17.32;68.54;99362.77;1811500;77;28421;-61
2021/05/19 08:34:50;;;;;;;3.30;2.80;;;;;;;17.38;68.75;99375.73;1833411;77;22144;-60
2021/05/19 08:37:36;;;;;;;3.00;2.47;;;;;;;17.36;68.83;99384.27;1745141;80;21119;-54
2021/05/19 08:40:11;;;;;;;4.03;3.00;;;;;;;17.24;68.90;99383.16;1823859;77;22205;-53
2021/05/19 08:42:44;;;;;;;3.60;2.90;;;;;;;17.28;68.88;99383.83;1853123;77;22151;-53
2021/05/19 08:45:31;;;;;;;3.33;2.85;;;;;;;17.28;68.89;99402.45;1757191;81;21182;-57
2021/05/19 08:48:07;;;;;;;3.00;2.42;;;;;;;17.32;69.08;99391.19;1834783;77;22179;-60
2021/05/19 08:50:46;;;;;;;3.42;2.70;;;;;;;17.35;68.86;99405.64;1814009;77;22637;-60
2021/05/19 08:53:19;;;;;;;3.20;2.47;;;;;;;17.37;68.97;99402.42;1834782;77;22179;-58
2021/05/19 08:55:53;;;;;;;3.83;2.40;;;;;;;17.42;68.89;99411.47;1813382;77;22178;-53
2021/05/19 08:58:26;;;;;;;3.02;2.20;;;;;;;17.44;69.11;99411.75;1824178;77;22162;-58
2021/05/19 09:00:59;;;;;;;3.70;2.60;;;;;;;17.38;69.03;99422.77;1805151;77;22136;-60
2021/05/19 09:03:36;;;;;;;3.27;2.47;;;;;;;17.45;69.11;99423.27;1820166;77;22167;-59
2021/05/19 09:06:11;;;;;;;3.85;2.40;;;;;;;17.46;68.97;99424.98;1813976;77;22598;-59
2021/05/19 09:08:56;;;;;;;2.98;1.85;;;;;;;17.33;68.91;99431.46;1762379;80;21151;-54
2021/05/19 09:11:31;;;;;;;2.90;1.95;;;;;;;17.32;68.87;99429.75;1810870;77;22159;-53
2021/05/19 09:14:14;;;;;;;2.10;1.80;;;;;;;17.42;68.90;99438.06;1834740;77;22156;-53
2021/05/19 09:16:53;;;;;;;3.55;2.50;;;;;;;17.41;69.27;99445.20;1804433;77;22617;-60
2021/05/19 09:19:33;;;;;;;2.55;2.02;;;;;;;17.52;69.03;99441.93;1834761;77;22670;-59
2021/05/19 09:22:24;;;;;;;3.62;2.30;;;;;;;17.54;68.99;99446.69;1762129;81;21210;-54
2021/05/19 09:24:57;;;;;;;3.15;2.20;;;;;;;17.65;68.84;99456.72;1831773;77;22148;-53
2021/05/19 09:27:41;;;;;;;2.77;2.15;;;;;;;17.66;68.79;99449.97;1830497;77;22155;-53
2021/05/19 09:30:16;;;;;;;2.77;2.17;;;;;;;17.77;69.13;99453.38;1820883;77;22493;-54
2021/05/19 09:33:22;;;;;;;4.17;2.47;;;;;;;17.82;68.70;99465.08;1738528;81;21618;-60
2021/05/19 09:38:52;;;;;;;3.60;2.80;;;;;;;18.08;68.87;99464.09;1814603;77;22167;-60
2021/05/19 09:41:36;;;;;;;3.40;3.05;;;;;;;18.24;69.27;99467.55;1796407;77;28032;-53
2021/05/19 09:44:25;;;;;;;3.58;2.77;;;;;;;18.42;68.92;99465.61;1761013;81;21189;-61
2021/05/19 09:46:57;;;;;;;3.47;2.27;;;;;;;18.82;68.19;99464.14;1803196;77;22166;-59
2021/05/19 09:49:37;;;;;;;3.17;1.98;;;;;;;19.09;66.98;99478.10;1814152;77;22179;-54
2021/05/19 09:52:13;;;;;;;4.15;2.10;;;;;;;19.19;66.67;99475.25;1909574;74;22156;-61
2021/05/19 09:54:46;;;;;;;2.72;1.82;;;;;;;19.13;65.50;99476.96;1812238;77;22183;-53
2021/05/19 09:57:43;;;;;;;3.17;2.10;;;;;;;19.08;65.74;99494.56;1757629;81;21139;-63
2021/05/19 10:00:24;;;;;;;3.83;2.22;;;;;;;19.16;65.84;99498.11;1813999;77;22189;-54
2021/05/19 10:02:59;;;;;;;3.33;2.52;;;;;;;19.18;65.39;99493.53;1834744;77;22156;-63
2021/05/19 10:05:37;;;;;;;5.03;2.17;;;;;;;19.32;65.78;99502.84;1829233;77;22202;-53
2021/05/19 10:08:14;;;;;;;3.42;2.30;;;;;;;19.32;64.92;99502.00;1836500;78;22167;-54
2021/05/19 10:11:01;;;;;;;3.77;2.25;;;;;;;19.33;64.88;99514.39;1786069;79;21228;-54
2021/05/19 10:13:34;;;;;;;4.37;2.27;;;;;;;19.29;64.28;99506.20;1829299;77;22171;-63
2021/05/19 10:16:08;;;;;;;4.03;2.60;;;;;;;19.41;63.73;99511.23;1815825;77;22222;-64
2021/05/19 10:18:45;;;;;;;6.80;2.83;;;;;;;19.54;63.56;99520.18;1853106;77;22178;-54
2021/05/19 10:21:19;;;;;;;3.62;2.55;;;;;;;19.66;63.05;99521.66;1813300;77;22631;-65
2021/05/19 10:24:03;;;;;;;5.40;2.72;;;;;;;19.82;63.83;99526.91;1822902;77;22136;-65
2021/05/19 10:26:52;;;;;;;3.08;2.60;;;;;;;19.83;62.81;99535.30;1810342;77;22178;-53
2021/05/19 10:29:51;;;;;;;2.90;2.45;;;;;;;19.95;63.05;99537.67;1820303;77;22164;-54
2021/05/19 10:35:08;;;;;;;2.98;2.60;;;;;;;19.83;62.22;99540.63;1830691;77;22152;-53
2021/05/19 10:37:50;;;;;;;4.22;3.17;;;;;;;19.90;62.10;99544.16;1834792;77;22148;-64
2021/05/19 10:40:37;;;;;;;3.50;2.90;;;;;;;20.00;63.26;99551.59;1781696;80;21135;-54
2021/05/19 10:43:10;;;;;;;4.05;3.27;;;;;;;20.14;62.74;99554.19;1832125;77;22132;-63
2021/05/19 10:45:57;;;;;;;4.80;3.58;;;;;;;20.32;62.37;99577.50;1821185;77;22202;-54
2021/05/19 10:48:41;;;;;;;5.10;3.50;;;;;;;20.42;61.57;99574.23;1764726;81;21133;-55
2021/05/19 10:57:19;;;;;;;4.12;3.00;;;;;;;20.73;60.43;99572.20;1769285;77;22167;-65
2021/05/19 11:00:22;;;;;;;4.42;3.27;;;;;;;20.75;59.71;99571.12;1834326;77;22576;-54
2021/05/19 11:03:05;;;;;;;4.90;3.20;;;;;;;20.90;59.85;99573.25;1853178;77;22167;-54
2021/05/19 11:05:56;;;;;;;4.72;3.33;;;;;;;20.99;58.97;99570.92;1822531;77;22206;-64
2021/05/19 11:08:29;;;;;;;4.33;3.50;;;;;;;20.99;58.09;99586.47;1834586;77;22152;-54
2021/05/19 11:19:36;;;;;;;4.83;3.70;;;;;;;20.67;58.47;99586.81;1824360;77;22158;-54
2021/05/19 11:22:14;;;;;;;5.00;3.30;;;;;;;20.65;57.95;99601.64;1904859;74;22590;-54
2021/05/19 11:24:56;;;;;;;3.72;2.90;;;;;;;20.74;57.85;99606.84;1831698;77;22136;-53
2021/05/19 11:27:35;;;;;;;4.00;3.30;;;;;;;20.70;57.24;99621.37;1824518;77;22156;-54
2021/05/19 11:30:26;;;;;;;4.17;3.20;;;;;;;20.60;56.75;99610.44;1824901;77;22633;-54
2021/05/19 11:33:11;;;;;;;4.65;3.22;;;;;;;20.59;57.42;99616.75;1833801;77;22152;-54
2021/05/19 11:35:49;;;;;;;4.28;3.50;;;;;;;20.64;57.48;99627.13;1819047;77;22205;-65
2021/05/19 11:38:31;;;;;;;5.40;3.20;;;;;;;20.64;56.29;99633.34;1852266;77;22154;-65
2021/05/19 11:41:04;;;;;;;3.75;3.00;;;;;;;20.65;56.66;99621.69;1816767;77;22214;-54
2021/05/19 11:43:50;;;;;;;4.83;3.15;;;;;;;20.53;56.36;99625.16;1761875;81;21158;-65
2021/05/19 11:46:23;;;;;;;4.53;3.02;;;;;;;20.44;56.89;99619.09;1799433;77;22178;-65
2021/05/19 11:49:10;;;;;;;6.22;3.40;;;;;;;20.39;56.76;99630.55;1834727;77;22622;-63
2021/05/19 11:51:31;;;;;;;3.50;3.15;;;;;;;20.45;57.14;99633.70;1828338;77;22605;-65
2021/05/19 11:54:05;;;;;;;10.50;3.42;;;;;;;20.43;57.18;99623.59;1832334;77;22587;-65
2021/05/19 11:57:03;;;;;;;4.95;3.37;;;;;;;20.43;56.56;99640.96;1761841;80;21362;-54
2021/05/19 11:59:37;;;;;;;3.72;2.98;;;;;;;20.51;56.88;99639.11;1827653;77;22226;-65
2021/05/19 12:02:12;;;;;;;3.72;3.10;;;;;;;20.46;55.84;99639.89;1910390;74;22536;-64
2021/05/19 12:04:46;;;;;;;4.67;3.30;;;;;;;20.09;55.13;99640.45;1815797;77;38306;-53
2021/05/19 12:07:19;;;;;;;3.98;2.75;;;;;;;20.29;55.36;99639.66;1834734;77;22232;-54
2021/05/19 12:10:14;;;;;;;3.55;2.98;;;;;;;20.08;55.44;99630.75;1832596;77;22269;-54
2021/05/19 12:12:53;;;;;;;3.10;2.62;;;;;;;20.09;55.71;99639.60;1834779;77;22120;-53
2021/05/19 12:15:38;;;;;;;4.10;3.20;;;;;;;20.09;55.98;99643.11;1739845;81;21284;-54
2021/05/19 12:18:12;;;;;;;4.80;3.40;;;;;;;20.18;56.21;99633.67;1853098;77;22183;-53
2021/05/19 12:20:47;;;;;;;3.80;3.10;;;;;;;20.15;56.29;99636.55;1821027;77;22238;-54
2021/05/19 12:23:20;;;;;;;3.55;3.00;;;;;;;20.21;56.77;99638.33;1819608;77;22186;-53
2021/05/19 12:26:10;;;;;;;5.17;3.00;;;;;;;20.12;55.81;99648.76;1761055;81;21143;-65
2021/05/19 12:28:44;;;;;;;4.83;3.65;;;;;;;20.29;55.90;99647.20;1852612;77;22174;-65
2021/05/19 12:31:30;;;;;;;5.40;3.65;;;;;;;20.34;56.09;99647.73;1813811;77;22174;-64
2021/05/19 12:34:16;;;;;;;4.25;3.40;;;;;;;20.21;56.02;99651.69;1761738;81;21587;-54
2021/05/19 12:36:56;;;;;;;5.12;3.35;;;;;;;20.26;55.13;99644.73;1804148;77;22709;-64
2021/05/19 12:39:30;;;;;;;3.35;2.87;;;;;;;20.31;55.69;99647.94;1819883;77;22156;-65
2021/05/19 12:42:21;;;;;;;3.35;2.83;;;;;;;20.45;55.41;99650.20;1758532;81;21293;-65
2021/05/19 12:44:58;;;;;;;3.62;2.77;;;;;;;20.53;54.31;99654.57;1832396;77;22148;-64
2021/05/19 12:47:31;;;;;;;4.65;3.10;;;;;;;20.61;54.20;99656.27;1827072;77;22115;-65
2021/05/19 12:50:25;;;;;;;3.70;3.10;;;;;;;20.69;54.47;99657.09;1817821;77;22278;-53